Time,TemperatureF,DewpointF,PressureIn,WindDirection,WindDirectionDegrees,WindSpeedMPH,WindSpeedGustMPH,Humidity,HourlyPrecipIn,Conditions,Clouds,dailyrainin,SoftwareType,DateUTC
2013-04-09 00:00:00,36.1,14.7,27.11,North,349,11.9,11.9,41,0.43,,---,0.00,VWS V14.01,2013-04-09 05:00:00,
2013-04-09 00:05:00,36.0,14.6,27.11,North,0,13.2,13.2,41,0.24,,---,0.00,VWS V14.01,2013-04-09 05:05:00,
2013-04-09 00:10:00,35.6,14.2,27.11,North,357,15.9,16.3,41,0.16,,---,0.00,VWS V14.01,2013-04-09 05:10:00,
2013-04-09 00:15:00,35.1,13.8,27.11,North,0,16.8,17.0,41,0.20,,---,0.04,VWS V14.01,2013-04-09 05:15:00,
2013-04-09 00:20:00,34.7,13.4,27.11,North,2,14.5,14.5,41,0.20,,---,0.04,VWS V14.01,2013-04-09 05:20:00,
2013-04-09 00:25:00,34.5,13.3,27.11,NNW,346,15.0,15.0,41,0.16,,---,0.04,VWS V14.01,2013-04-09 05:25:00,
2013-04-09 00:30:00,34.5,13.3,27.11,North,353,12.3,12.3,41,0.16,,---,0.04,VWS V14.01,2013-04-09 05:30:00,
2013-04-09 00:35:00,34.5,13.3,27.11,NNE,17,15.0,15.0,41,0.12,,---,0.04,VWS V14.01,2013-04-09 05:35:00,
2013-04-09 00:40:00,34.3,13.1,27.11,NNE,14,13.2,15.0,41,0.12,,---,0.04,VWS V14.01,2013-04-09 05:40:00,
2013-04-09 00:45:00,34.2,12.9,27.05,North,10,17.0,17.4,41,0.12,,---,0.04,VWS V14.01,2013-04-09 05:45:00,
2013-04-09 00:50:00,34.2,12.9,27.05,North,10,13.2,17.4,41,0.08,,---,0.04,VWS V14.01,2013-04-09 05:50:00,
2013-04-09 00:55:00,34.0,12.8,27.05,North,0,21.9,21.9,41,0.04,,---,0.04,VWS V14.01,2013-04-09 05:55:00,
2013-04-09 01:00:00,34.0,12.8,26.99,North,0,15.4,23.3,41,0.04,,---,0.04,VWS V14.01,2013-04-09 06:00:00,
2013-04-09 01:05:00,34.0,12.8,26.99,NNE,20,13.2,15.4,41,0.04,,---,0.04,VWS V14.01,2013-04-09 06:05:00,
2013-04-09 01:10:00,34.0,12.8,26.99,North,0,15.4,17.4,41,0.04,,---,0.04,VWS V14.01,2013-04-09 06:10:00,
2013-04-09 01:15:00,34.0,12.8,27.05,North,8,15.4,15.9,41,0.00,,---,0.04,VWS V14.01,2013-04-09 06:15:00,
2013-04-09 01:20:00,34.2,12.9,27.05,North,2,15.4,15.4,41,0.00,,---,0.04,VWS V14.01,2013-04-09 06:20:00,
2013-04-09 01:25:00,34.2,12.9,27.05,North,357,8.3,10.1,41,0.00,,---,0.04,VWS V14.01,2013-04-09 06:25:00,
2013-04-09 01:30:00,34.2,12.9,27.14,NNE,29,9.2,12.8,41,0.04,,---,0.08,VWS V14.01,2013-04-09 06:30:00,
2013-04-09 01:35:00,34.0,13.3,27.14,North,2,12.8,12.8,42,0.20,,---,0.24,VWS V14.01,2013-04-09 06:35:00,
2013-04-09 01:40:00,34.0,13.3,27.14,North,5,13.6,13.6,42,0.20,,---,0.24,VWS V14.01,2013-04-09 06:40:00,
2013-04-09 01:45:00,34.2,13.5,27.11,North,7,12.8,12.8,42,0.20,,---,0.24,VWS V14.01,2013-04-09 06:45:00,
2013-04-09 01:50:00,34.3,13.6,27.11,North,10,12.3,12.3,42,0.43,,---,0.47,VWS V14.01,2013-04-09 06:50:00,
2013-04-09 01:55:00,34.3,13.6,27.11,North,7,11.0,11.0,42,0.43,,---,0.47,VWS V14.01,2013-04-09 06:55:00,
2013-04-09 02:00:00,34.2,13.5,27.11,North,10,12.8,12.8,42,0.47,,---,0.51,VWS V14.01,2013-04-09 07:00:00,
2013-04-09 02:05:00,34.3,13.6,27.11,North,5,13.2,13.2,42,0.47,,---,0.51,VWS V14.01,2013-04-09 07:05:00,
2013-04-09 02:10:00,34.3,13.6,27.11,North,8,15.4,15.4,42,0.51,,---,0.55,VWS V14.01,2013-04-09 07:10:00,
2013-04-09 02:15:00,34.2,13.5,27.05,North,11,16.3,16.3,42,0.51,,---,0.55,VWS V14.01,2013-04-09 07:15:00,
2013-04-09 02:20:00,34.2,13.5,27.05,NNE,12,15.4,15.9,42,0.51,,---,0.55,VWS V14.01,2013-04-09 07:20:00,
2013-04-09 02:25:00,34.0,12.8,27.05,NNE,19,12.3,12.3,41,0.51,,---,0.55,VWS V14.01,2013-04-09 07:25:00,
2013-04-09 02:30:00,34.0,13.3,27.02,North,10,13.2,13.2,42,0.47,,---,0.55,VWS V14.01,2013-04-09 07:30:00,
2013-04-09 02:35:00,34.0,13.3,27.02,North,6,12.3,12.3,42,0.31,,---,0.55,VWS V14.01,2013-04-09 07:35:00,
2013-04-09 02:40:00,34.2,12.9,27.02,NNE,22,11.4,13.2,41,0.31,,---,0.55,VWS V14.01,2013-04-09 07:40:00,
2013-04-09 02:45:00,34.2,12.9,27.08,NW,324,5.4,5.4,41,0.31,,---,0.55,VWS V14.01,2013-04-09 07:45:00,
2013-04-09 02:50:00,34.7,14.0,27.08,WNW,299,5.8,5.8,42,0.08,,---,0.55,VWS V14.01,2013-04-09 07:50:00,
2013-04-09 02:55:00,34.3,13.6,27.08,NNW,346,10.5,10.5,42,0.08,,---,0.55,VWS V14.01,2013-04-09 07:55:00,
2013-04-09 03:00:00,33.6,13.0,27.17,NW,326,10.5,10.5,42,0.04,,---,0.55,VWS V14.01,2013-04-09 08:00:00,
2013-04-09 03:05:00,33.4,12.8,27.17,NNW,337,8.7,8.7,42,0.08,,---,0.59,VWS V14.01,2013-04-09 08:05:00,
2013-04-09 03:10:00,33.3,12.7,27.17,NNE,12,11.9,11.9,42,0.04,,---,0.59,VWS V14.01,2013-04-09 08:10:00,
2013-04-09 03:15:00,33.3,12.7,27.17,North,11,13.2,13.2,42,0.08,,---,0.63,VWS V14.01,2013-04-09 08:15:00,
2013-04-09 03:20:00,33.1,12.5,27.17,NNE,23,10.1,10.1,42,0.08,,---,0.63,VWS V14.01,2013-04-09 08:20:00,
2013-04-09 03:25:00,33.1,12.5,27.17,NNE,15,11.0,11.0,42,0.08,,---,0.63,VWS V14.01,2013-04-09 08:25:00,
2013-04-09 03:30:00,33.1,12.5,27.17,NNE,18,12.8,12.8,42,0.08,,---,0.63,VWS V14.01,2013-04-09 08:30:00,
2013-04-09 03:35:00,33.3,12.7,27.11,North,353,10.5,12.8,42,0.08,,---,0.63,VWS V14.01,2013-04-09 08:35:00,
2013-04-09 03:40:00,33.3,12.7,27.11,NNE,24,12.3,12.3,42,0.08,,---,0.63,VWS V14.01,2013-04-09 08:40:00,
2013-04-09 03:45:00,33.3,12.7,27.11,NNE,30,13.2,13.2,42,0.08,,---,0.63,VWS V14.01,2013-04-09 08:45:00,
2013-04-09 03:50:00,33.3,12.1,27.11,NNE,29,18.8,18.8,41,0.08,,---,0.63,VWS V14.01,2013-04-09 08:50:00,
2013-04-09 03:55:00,33.4,12.3,27.11,NE,39,23.3,23.3,41,0.16,,---,0.71,VWS V14.01,2013-04-09 08:55:00,
2013-04-09 04:00:00,33.6,12.4,27.11,NE,35,17.9,21.0,41,0.16,,---,0.71,VWS V14.01,2013-04-09 09:00:00,
2013-04-09 04:05:00,33.8,12.6,27.05,NE,44,16.3,16.8,41,0.12,,---,0.71,VWS V14.01,2013-04-09 09:05:00,
2013-04-09 04:10:00,33.8,12.6,27.05,NE,37,17.4,17.4,41,0.12,,---,0.71,VWS V14.01,2013-04-09 09:10:00,
2013-04-09 04:15:00,33.4,12.3,27.08,NE,36,12.8,12.8,41,0.12,,---,0.71,VWS V14.01,2013-04-09 09:15:00,
2013-04-09 04:20:00,33.3,12.1,27.08,North,8,12.3,12.3,41,0.08,,---,0.71,VWS V14.01,2013-04-09 09:20:00,
2013-04-09 04:25:00,33.4,12.3,27.08,NNE,17,7.6,7.6,41,0.08,,---,0.71,VWS V14.01,2013-04-09 09:25:00,
2013-04-09 04:31:00,33.4,12.3,27.08,North,3,10.1,10.1,41,0.08,,---,0.71,VWS V14.01,2013-04-09 09:31:00,
2013-04-09 04:36:00,33.6,13.0,27.17,North,0,8.3,8.3,42,0.35,,---,0.98,VWS V14.01,2013-04-09 09:36:00,
2013-04-09 04:41:00,33.4,12.3,27.17,North,357,10.1,10.1,41,0.35,,---,0.98,VWS V14.01,2013-04-09 09:41:00,
2013-04-09 04:46:00,33.6,12.4,27.20,North,0,8.1,10.1,41,0.35,,---,0.98,VWS V14.01,2013-04-09 09:46:00,
2013-04-09 04:51:00,33.8,12.6,27.20,North,2,5.4,8.7,41,0.35,,---,0.98,VWS V14.01,2013-04-09 09:51:00,
2013-04-09 04:56:00,33.8,12.6,27.20,North,353,8.1,8.7,41,0.28,,---,0.98,VWS V14.01,2013-04-09 09:56:00,
2013-04-09 05:01:00,33.6,12.4,27.17,North,0,10.1,11.0,41,0.28,,---,0.98,VWS V14.01,2013-04-09 10:01:00,
2013-04-09 05:06:00,33.3,12.1,27.17,North,353,8.1,8.3,41,0.28,,---,0.98,VWS V14.01,2013-04-09 10:06:00,
2013-04-09 05:11:00,33.3,12.1,27.17,NNW,348,8.1,8.7,41,0.28,,---,0.98,VWS V14.01,2013-04-09 10:11:00,
2013-04-09 05:16:00,33.3,12.1,27.20,North,6,8.3,9.2,41,0.28,,---,0.98,VWS V14.01,2013-04-09 10:16:00,
2013-04-09 05:21:00,33.3,12.1,27.20,NNE,14,8.3,8.3,41,0.28,,---,0.98,VWS V14.01,2013-04-09 10:21:00,
2013-04-09 05:26:00,33.4,12.3,27.20,North,353,9.6,9.6,41,0.28,,---,0.98,VWS V14.01,2013-04-09 10:26:00,
2013-04-09 05:31:00,33.4,12.3,27.20,North,357,10.5,10.5,41,0.28,,---,0.98,VWS V14.01,2013-04-09 10:31:00,
2013-04-09 05:36:00,33.6,12.4,27.20,NNE,15,11.0,11.0,41,0.00,,---,0.98,VWS V14.01,2013-04-09 10:36:00,
2013-04-09 05:41:00,33.6,12.4,27.20,North,357,10.1,10.1,41,0.00,,---,0.98,VWS V14.01,2013-04-09 10:41:00,
2013-04-09 05:46:00,33.6,12.4,27.23,NW,311,11.0,11.0,41,0.00,,---,0.98,VWS V14.01,2013-04-09 10:46:00,
2013-04-09 05:51:00,33.6,12.4,27.23,North,353,5.8,7.6,41,0.00,,---,0.98,VWS V14.01,2013-04-09 10:51:00,
2013-04-09 05:56:00,33.8,12.1,27.23,North,357,8.7,10.1,40,0.00,,---,0.98,VWS V14.01,2013-04-09 10:56:00,
2013-04-09 06:01:00,33.4,12.3,27.23,North,1,8.3,8.7,41,0.00,,---,0.98,VWS V14.01,2013-04-09 11:01:00,
2013-04-09 06:06:00,33.3,12.1,27.23,North,353,10.5,10.5,41,0.00,,---,0.98,VWS V14.01,2013-04-09 11:06:00,
2013-04-09 06:11:00,33.3,12.1,27.23,North,353,11.0,11.0,41,0.00,,---,0.98,VWS V14.01,2013-04-09 11:11:00,
2013-04-09 06:16:00,31.8,10.8,27.26,North,0,8.1,12.3,41,0.00,,---,0.98,VWS V14.01,2013-04-09 11:16:00,
2013-04-09 06:21:00,30.4,9.5,27.26,NNW,348,8.7,15.4,41,0.00,,---,0.98,VWS V14.01,2013-04-09 11:21:00,
2013-04-09 06:26:00,29.5,8.7,27.26,NNW,344,11.0,11.0,41,0.00,,---,0.98,VWS V14.01,2013-04-09 11:26:00,
2013-04-09 06:31:00,28.9,8.2,27.29,NNW,342,11.9,11.9,41,0.00,,---,0.98,VWS V14.01,2013-04-09 11:31:00,
2013-04-09 06:36:00,27.3,6.7,27.29,NNW,342,12.8,13.2,41,0.00,,---,0.98,VWS V14.01,2013-04-09 11:36:00,
2013-04-09 06:41:00,26.8,6.2,27.29,NNW,342,11.0,12.3,41,0.00,,---,0.98,VWS V14.01,2013-04-09 11:41:00,
2013-04-09 06:46:00,26.2,6.3,27.26,NNW,342,11.9,11.9,42,0.00,,---,0.98,VWS V14.01,2013-04-09 11:46:00,
2013-04-09 06:51:00,26.2,6.3,27.26,NNW,342,13.2,13.2,42,0.00,,---,0.98,VWS V14.01,2013-04-09 11:51:00,
2013-04-09 06:56:00,25.9,6.0,27.26,NNW,342,8.7,8.7,42,0.00,,---,0.98,VWS V14.01,2013-04-09 11:56:00,
2013-04-09 07:01:00,25.9,6.0,27.26,NNW,342,12.8,12.8,42,0.00,,---,0.98,VWS V14.01,2013-04-09 12:01:00,
2013-04-09 07:06:00,25.9,6.0,27.29,NNW,342,10.5,15.0,42,0.00,,---,0.98,VWS V14.01,2013-04-09 12:06:00,
2013-04-09 07:11:00,25.9,6.0,27.29,NNW,342,11.9,11.9,42,0.00,,---,0.98,VWS V14.01,2013-04-09 12:11:00,
2013-04-09 07:16:00,25.9,6.0,27.29,NNW,342,9.6,9.6,42,0.00,,---,0.98,VWS V14.01,2013-04-09 12:16:00,
2013-04-09 07:21:00,25.9,6.0,27.29,NNW,342,8.3,13.2,42,0.00,,---,0.98,VWS V14.01,2013-04-09 12:21:00,
2013-04-09 07:26:00,25.9,6.0,27.29,NNW,342,7.6,7.6,42,0.00,,---,0.98,VWS V14.01,2013-04-09 12:26:00,
2013-04-09 07:31:00,23.4,3.7,27.34,NNW,342,8.3,8.3,42,0.00,,---,0.98,VWS V14.01,2013-04-09 12:31:00,
2013-04-09 07:36:00,23.4,3.7,27.34,NNW,342,8.3,12.8,42,0.00,,---,0.98,VWS V14.01,2013-04-09 12:36:00,
2013-04-09 07:41:00,23.4,3.7,27.34,NNW,342,11.0,11.0,42,0.00,,---,0.98,VWS V14.01,2013-04-09 12:41:00,
2013-04-09 07:46:00,23.4,3.7,27.34,NNW,342,12.3,12.3,42,0.00,,---,0.98,VWS V14.01,2013-04-09 12:46:00,
2013-04-09 07:51:00,23.4,3.7,27.34,NNW,342,12.8,12.8,42,0.00,,---,0.98,VWS V14.01,2013-04-09 12:51:00,
2013-04-09 07:56:00,23.4,3.7,27.34,NNW,342,12.3,12.3,42,0.00,,---,0.98,VWS V14.01,2013-04-09 12:56:00,
2013-04-09 08:01:00,23.4,3.7,27.34,NNW,342,8.3,13.2,42,0.00,,---,0.98,VWS V14.01,2013-04-09 13:01:00,
2013-04-09 08:06:00,23.4,3.7,27.32,NNW,342,11.0,15.4,42,0.00,,---,0.98,VWS V14.01,2013-04-09 13:06:00,
2013-04-09 08:11:00,23.4,3.7,27.32,NNW,342,10.5,12.8,42,0.00,,---,0.98,VWS V14.01,2013-04-09 13:11:00,
2013-04-09 08:16:00,23.4,3.7,27.34,NNW,342,13.2,13.2,42,0.00,,---,0.98,VWS V14.01,2013-04-09 13:16:00,
2013-04-09 08:21:00,23.4,3.7,27.34,NNW,342,8.3,10.1,42,0.00,,---,0.98,VWS V14.01,2013-04-09 13:21:00,
2013-04-09 08:26:00,23.4,3.7,27.34,NNW,342,10.5,10.5,42,0.00,,---,0.98,VWS V14.01,2013-04-09 13:26:00,
2013-04-09 08:31:00,23.4,3.7,27.34,NNW,342,11.0,13.2,42,0.00,,---,0.98,VWS V14.01,2013-04-09 13:31:00,
2013-04-09 08:36:00,23.4,3.7,27.37,NNW,342,8.3,8.3,42,0.00,,---,0.98,VWS V14.01,2013-04-09 13:36:00,
2013-04-09 08:41:00,23.4,3.7,27.37,NNW,342,15.4,15.4,42,0.00,,---,0.98,VWS V14.01,2013-04-09 13:41:00,
2013-04-09 08:47:00,23.4,3.7,27.34,NNW,342,8.7,8.7,42,0.00,,---,0.98,VWS V14.01,2013-04-09 13:47:00,
2013-04-09 08:52:00,23.4,3.7,27.34,NNW,342,13.6,15.4,42,0.00,,---,0.98,VWS V14.01,2013-04-09 13:52:00,
2013-04-09 08:57:00,23.4,3.7,27.37,NNW,342,9.2,10.5,42,0.00,,---,0.98,VWS V14.01,2013-04-09 13:57:00,
2013-04-09 09:02:00,23.4,3.7,27.37,NNW,342,10.1,10.1,42,0.00,,---,0.98,VWS V14.01,2013-04-09 14:02:00,
2013-04-09 09:07:00,23.4,3.7,27.37,NNW,342,10.5,10.5,42,0.00,,---,0.98,VWS V14.01,2013-04-09 14:07:00,
2013-04-09 09:12:00,23.4,3.7,27.37,NNW,342,10.5,11.0,42,0.00,,---,0.98,VWS V14.01,2013-04-09 14:12:00,
2013-04-09 09:17:00,23.4,3.7,27.37,NNW,342,10.1,10.1,42,0.00,,---,0.98,VWS V14.01,2013-04-09 14:17:00,
2013-04-09 09:22:00,23.4,3.7,27.37,NNW,342,12.3,12.3,42,0.00,,---,0.98,VWS V14.01,2013-04-09 14:22:00,
2013-04-09 09:27:00,23.4,3.7,27.37,NNW,342,12.8,13.2,42,0.00,,---,0.98,VWS V14.01,2013-04-09 14:27:00,
2013-04-09 09:32:00,23.4,3.7,27.37,NNW,342,12.3,12.3,42,0.00,,---,0.98,VWS V14.01,2013-04-09 14:32:00,
2013-04-09 09:37:00,23.4,3.7,27.37,NNW,342,11.9,11.9,42,0.00,,---,0.98,VWS V14.01,2013-04-09 14:37:00,
2013-04-09 09:42:00,23.4,3.7,27.37,NNW,342,10.5,10.5,42,0.00,,---,0.98,VWS V14.01,2013-04-09 14:42:00,
2013-04-09 09:47:00,23.4,3.7,27.37,NNW,342,8.7,10.5,42,0.00,,---,0.98,VWS V14.01,2013-04-09 14:47:00,
2013-04-09 09:52:00,20.5,1.5,27.37,NNW,342,10.5,10.5,43,0.00,,---,0.98,VWS V14.01,2013-04-09 14:52:00,
2013-04-09 09:57:00,20.5,1.5,27.37,NNW,342,10.5,12.3,43,0.00,,---,0.98,VWS V14.01,2013-04-09 14:57:00,
2013-04-09 10:02:00,20.5,1.5,27.40,NNW,342,10.1,10.1,43,0.00,,---,0.98,VWS V14.01,2013-04-09 15:02:00,
2013-04-09 10:07:00,20.5,1.5,27.40,NNW,342,7.6,8.3,43,0.00,,---,0.98,VWS V14.01,2013-04-09 15:07:00,
2013-04-09 10:12:00,20.5,1.5,27.40,NNW,342,13.2,13.2,43,0.00,,---,0.98,VWS V14.01,2013-04-09 15:12:00,
2013-04-09 10:17:00,20.5,1.5,27.40,NNW,342,10.5,11.0,43,0.00,,---,0.98,VWS V14.01,2013-04-09 15:17:00,
2013-04-09 10:22:00,20.5,1.5,27.40,NNW,342,15.0,15.0,43,0.00,,---,0.98,VWS V14.01,2013-04-09 15:22:00,
2013-04-09 10:27:00,21.0,2.0,27.40,NNW,343,10.5,14.1,43,0.00,,---,0.98,VWS V14.01,2013-04-09 15:27:00,
2013-04-09 10:32:00,21.0,2.0,27.37,NNW,342,11.0,11.0,43,0.00,,---,0.98,VWS V14.01,2013-04-09 15:32:00,
2013-04-09 10:37:00,21.0,2.0,27.37,NNW,343,12.3,15.4,43,0.00,,---,0.98,VWS V14.01,2013-04-09 15:37:00,
2013-04-09 10:42:00,21.0,2.0,27.40,NNW,342,12.8,12.8,43,0.00,,---,0.98,VWS V14.01,2013-04-09 15:42:00,
2013-04-09 10:47:00,21.0,2.0,27.40,NNW,343,12.8,14.1,43,0.00,,---,0.98,VWS V14.01,2013-04-09 15:47:00,
2013-04-09 10:52:00,21.0,2.0,27.40,NNW,343,11.0,11.0,43,0.00,,---,0.98,VWS V14.01,2013-04-09 15:52:00,
2013-04-09 10:57:00,21.0,2.0,27.40,NNW,343,13.2,13.2,43,0.00,,---,0.98,VWS V14.01,2013-04-09 15:57:00,
2013-04-09 11:02:00,21.0,2.0,27.37,NNW,342,13.2,13.2,43,0.00,,---,0.98,VWS V14.01,2013-04-09 16:02:00,
2013-04-09 11:07:00,21.4,1.9,27.37,NNW,343,11.0,11.0,42,0.00,,---,0.98,VWS V14.01,2013-04-09 16:07:00,
2013-04-09 11:12:00,21.4,1.9,27.37,NNW,343,12.3,12.3,42,0.00,,---,0.98,VWS V14.01,2013-04-09 16:12:00,
2013-04-09 11:17:00,21.2,2.2,27.37,NNW,343,10.1,10.1,43,0.00,,---,0.98,VWS V14.01,2013-04-09 16:17:00,
2013-04-09 11:22:00,21.2,2.2,27.40,NNW,343,14.5,14.5,43,0.00,,---,0.98,VWS V14.01,2013-04-09 16:22:00,
2013-04-09 11:27:00,21.2,2.2,27.40,NNW,343,10.5,12.8,43,0.00,,---,0.98,VWS V14.01,2013-04-09 16:27:00,
2013-04-09 11:32:00,21.2,2.2,27.40,NNW,343,9.2,10.1,43,0.00,,---,0.98,VWS V14.01,2013-04-09 16:32:00,
2013-04-09 11:37:00,21.2,2.2,27.40,NNW,343,15.0,15.0,43,0.00,,---,0.98,VWS V14.01,2013-04-09 16:37:00,
2013-04-09 11:42:00,21.2,2.2,27.40,NNW,343,12.8,12.8,43,0.00,,---,0.98,VWS V14.01,2013-04-09 16:42:00,
2013-04-09 11:47:00,20.5,1.5,27.40,NNW,343,10.5,10.5,43,0.00,,---,0.98,VWS V14.01,2013-04-09 16:47:00,
2013-04-09 11:52:00,20.5,1.5,27.40,NNW,343,10.5,13.2,43,0.00,,---,0.98,VWS V14.01,2013-04-09 16:52:00,
2013-04-09 11:57:00,20.5,1.5,27.40,NNW,343,13.6,13.6,43,0.00,,---,0.98,VWS V14.01,2013-04-09 16:57:00,
2013-04-09 12:02:00,19.8,0.9,27.40,NNW,343,13.2,15.0,43,0.00,,---,0.98,VWS V14.01,2013-04-09 17:02:00,
2013-04-09 12:07:00,19.8,0.9,27.40,NNW,343,8.7,11.0,43,0.00,,---,0.98,VWS V14.01,2013-04-09 17:07:00,
2013-04-09 12:12:00,20.3,1.4,27.40,NNW,343,11.4,11.4,43,0.00,,---,0.98,VWS V14.01,2013-04-09 17:12:00,
2013-04-09 12:17:00,20.7,1.7,27.40,NNW,343,10.5,12.3,43,0.00,,---,0.98,VWS V14.01,2013-04-09 17:17:00,
2013-04-09 12:22:00,20.5,1.5,27.40,NNW,343,11.0,11.0,43,0.00,,---,0.98,VWS V14.01,2013-04-09 17:22:00,
2013-04-09 12:27:00,20.3,1.4,27.40,NNW,343,10.1,10.1,43,0.00,,---,0.98,VWS V14.01,2013-04-09 17:27:00,
2013-04-09 12:32:00,20.3,1.4,27.37,NNW,343,8.3,8.3,43,0.00,,---,0.98,VWS V14.01,2013-04-09 17:32:00,
2013-04-09 12:37:00,19.8,0.9,27.37,NNW,343,16.3,16.3,43,0.00,,---,0.98,VWS V14.01,2013-04-09 17:37:00,
2013-04-09 12:42:00,18.5,-0.3,27.34,NNW,343,13.2,13.2,43,0.00,,---,0.98,VWS V14.01,2013-04-09 17:42:00,
2013-04-09 12:47:00,19.9,1.1,27.34,NNW,343,13.2,13.2,43,0.00,,---,0.98,VWS V14.01,2013-04-09 17:47:00,
2013-04-09 12:52:00,19.8,0.9,27.34,NNW,343,8.3,10.5,43,0.00,,---,0.98,VWS V14.01,2013-04-09 17:52:00,
2013-04-09 12:57:00,19.6,0.7,27.37,NNW,343,5.8,5.8,43,0.00,,---,0.98,VWS V14.01,2013-04-09 17:57:00,
2013-04-09 13:02:00,19.2,0.4,27.37,NNW,343,5.8,5.8,43,0.00,,---,0.98,VWS V14.01,2013-04-09 18:02:00,
2013-04-09 13:07:00,19.2,0.4,27.37,NNW,343,8.3,8.3,43,0.00,,---,0.98,VWS V14.01,2013-04-09 18:07:00,
2013-04-09 13:13:00,19.2,0.4,27.49,NNW,343,5.8,5.8,43,0.00,,---,0.98,VWS V14.01,2013-04-09 18:13:00,
2013-04-09 13:18:00,19.9,1.1,27.49,NNW,343,10.1,10.1,43,0.00,,---,0.98,VWS V14.01,2013-04-09 18:18:00,
2013-04-09 13:23:00,20.5,1.5,27.49,NNW,343,13.2,13.2,43,0.00,,---,0.98,VWS V14.01,2013-04-09 18:23:00,
2013-04-09 13:28:00,21.2,2.2,27.49,NNW,343,9.2,10.1,43,0.00,,---,0.98,VWS V14.01,2013-04-09 18:28:00,
2013-04-09 13:33:00,21.6,2.0,27.40,NNW,343,6.3,10.5,42,0.00,,---,0.98,VWS V14.01,2013-04-09 18:33:00,
2013-04-09 13:38:00,21.0,2.0,27.40,NNW,343,8.3,9.2,43,0.00,,---,0.98,VWS V14.01,2013-04-09 18:38:00,
2013-04-09 13:43:00,20.8,1.9,27.40,NNW,343,8.7,9.2,43,0.00,,---,0.98,VWS V14.01,2013-04-09 18:43:00,
2013-04-09 13:48:00,20.7,1.7,27.40,NNW,343,11.0,11.0,43,0.00,,---,0.98,VWS V14.01,2013-04-09 18:48:00,
2013-04-09 13:53:00,21.0,2.0,27.40,NNW,343,7.6,10.5,43,0.00,,---,0.98,VWS V14.01,2013-04-09 18:53:00,
2013-04-09 13:58:00,21.4,1.9,27.40,NNW,343,9.2,11.0,42,0.00,,---,0.98,VWS V14.01,2013-04-09 18:58:00,
2013-04-09 14:03:00,21.2,2.2,27.40,NNW,343,11.0,11.0,43,0.00,,---,0.98,VWS V14.01,2013-04-09 19:03:00,
2013-04-09 14:08:00,21.2,2.2,27.40,NNW,343,12.3,12.3,43,0.00,,---,0.98,VWS V14.01,2013-04-09 19:08:00,
2013-04-09 14:13:00,21.9,2.4,27.43,NNW,343,7.6,7.6,42,0.00,,---,0.98,VWS V14.01,2013-04-09 19:13:00,
2013-04-09 14:18:00,21.4,1.9,27.43,NNW,343,8.7,8.7,42,0.00,,---,0.98,VWS V14.01,2013-04-09 19:18:00,
2013-04-09 14:23:00,20.5,1.5,27.43,NNW,343,11.0,11.0,43,0.00,,---,0.98,VWS V14.01,2013-04-09 19:23:00,
2013-04-09 14:29:00,20.5,1.5,27.43,NNW,343,13.2,13.2,43,0.00,,---,0.98,VWS V14.01,2013-04-09 19:29:00,
2013-04-09 14:34:00,20.5,1.5,27.40,NNW,343,12.8,12.8,43,0.00,,---,0.98,VWS V14.01,2013-04-09 19:34:00,
2013-04-09 14:39:00,20.7,1.7,27.40,NNW,343,11.0,13.2,43,0.00,,---,0.98,VWS V14.01,2013-04-09 19:39:00,
2013-04-09 14:44:00,20.7,1.7,27.43,NNW,343,11.0,11.0,43,0.00,,---,0.98,VWS V14.01,2013-04-09 19:44:00,
2013-04-09 14:49:00,20.8,1.9,27.43,NNW,343,7.6,8.7,43,0.00,,---,0.98,VWS V14.01,2013-04-09 19:49:00,
2013-04-09 14:54:00,21.4,1.9,27.43,NNW,343,8.1,8.3,42,0.00,,---,0.98,VWS V14.01,2013-04-09 19:54:00,
2013-04-09 14:59:00,20.7,1.7,27.43,NNW,343,12.8,12.8,43,0.00,,---,0.98,VWS V14.01,2013-04-09 19:59:00,
2013-04-09 15:04:00,20.7,1.7,27.40,NNW,343,9.2,9.2,43,0.00,,---,0.98,VWS V14.01,2013-04-09 20:04:00,
2013-04-09 15:09:00,20.3,1.4,27.40,NNW,343,7.6,7.6,43,0.00,,---,0.98,VWS V14.01,2013-04-09 20:09:00,
2013-04-09 15:14:00,20.5,1.5,27.43,NNW,343,8.3,8.3,43,0.00,,---,0.98,VWS V14.01,2013-04-09 20:14:00,
2013-04-09 15:20:00,20.7,1.7,27.43,NNW,343,10.5,10.5,43,0.00,,---,0.98,VWS V14.01,2013-04-09 20:20:00,
2013-04-09 15:25:00,21.2,2.2,27.43,NNW,343,8.1,12.3,43,0.00,,---,0.98,VWS V14.01,2013-04-09 20:25:00,
2013-04-09 15:30:00,20.7,1.7,27.43,NNW,343,7.6,7.6,43,0.00,,---,0.98,VWS V14.01,2013-04-09 20:30:00,
2013-04-09 15:35:00,20.3,1.4,27.43,NNW,344,7.6,10.5,43,0.00,,---,0.98,VWS V14.01,2013-04-09 20:35:00,
2013-04-09 15:40:00,20.1,1.2,27.43,NNW,344,10.5,10.5,43,0.00,,---,0.98,VWS V14.01,2013-04-09 20:40:00,
2013-04-09 15:45:00,20.7,1.7,27.43,NNW,344,8.1,11.9,43,0.00,,---,0.98,VWS V14.01,2013-04-09 20:45:00,
2013-04-09 15:50:00,20.8,1.9,27.43,NNW,344,7.6,7.6,43,0.00,,---,0.98,VWS V14.01,2013-04-09 20:50:00,
2013-04-09 15:56:00,20.8,1.9,27.43,NNW,344,7.6,8.1,43,0.00,,---,0.98,VWS V14.01,2013-04-09 20:56:00,
2013-04-09 16:01:00,21.0,2.0,27.43,NNW,344,8.7,8.7,43,0.00,,---,0.98,VWS V14.01,2013-04-09 21:01:00,
2013-04-09 16:06:00,20.7,1.7,27.43,North,353,11.0,11.0,43,0.00,,---,0.98,VWS V14.01,2013-04-09 21:06:00,
2013-04-09 16:11:00,21.2,2.2,27.43,North,353,11.0,11.0,43,0.00,,---,0.98,VWS V14.01,2013-04-09 21:11:00,
2013-04-09 16:17:00,21.4,1.9,27.40,North,353,12.3,14.1,42,0.00,,---,0.98,VWS V14.01,2013-04-09 21:17:00,
2013-04-09 16:22:00,20.5,1.5,27.40,North,353,12.8,12.8,43,0.00,,---,0.98,VWS V14.01,2013-04-09 21:22:00,
2013-04-09 16:28:00,20.5,1.5,27.40,North,353,11.0,12.3,43,0.00,,---,0.98,VWS V14.01,2013-04-09 21:28:00,
2013-04-09 16:33:00,21.0,2.0,27.37,North,353,10.1,10.5,43,0.00,,---,0.98,VWS V14.01,2013-04-09 21:33:00,
2013-04-09 16:39:00,21.0,2.0,27.37,North,353,9.2,9.2,43,0.00,,---,0.98,VWS V14.01,2013-04-09 21:39:00,
2013-04-09 16:44:00,20.8,1.9,27.40,North,353,11.0,12.3,43,0.00,,---,0.98,VWS V14.01,2013-04-09 21:44:00,
2013-04-09 16:49:00,21.0,2.0,27.40,North,353,5.4,10.1,43,0.00,,---,0.98,VWS V14.01,2013-04-09 21:49:00,
2013-04-09 16:54:00,21.0,2.0,27.40,North,353,8.7,8.7,43,0.00,,---,0.98,VWS V14.01,2013-04-09 21:54:00,
2013-04-09 16:59:00,20.7,1.7,27.46,North,353,8.7,8.7,43,0.00,,---,0.98,VWS V14.01,2013-04-09 21:59:00,
2013-04-09 17:04:00,20.8,1.9,27.46,North,353,8.7,8.7,43,0.00,,---,0.98,VWS V14.01,2013-04-09 22:04:00,
2013-04-09 17:09:00,20.7,1.7,27.46,North,353,8.1,10.1,43,0.00,,---,0.98,VWS V14.01,2013-04-09 22:09:00,
2013-04-09 17:14:00,20.7,1.7,27.46,North,353,10.5,10.5,43,0.00,,---,0.98,VWS V14.01,2013-04-09 22:14:00,
2013-04-09 17:20:00,20.5,1.5,27.46,North,353,5.8,8.7,43,0.00,,---,0.98,VWS V14.01,2013-04-09 22:20:00,
2013-04-09 17:25:00,20.5,1.5,27.46,North,353,8.7,11.0,43,0.00,,---,0.98,VWS V14.01,2013-04-09 22:25:00,
2013-04-09 17:30:00,20.7,1.7,27.46,North,353,10.1,11.0,43,0.00,,---,0.98,VWS V14.01,2013-04-09 22:30:00,
2013-04-09 17:35:00,20.8,1.9,27.46,North,353,6.7,6.7,43,0.00,,---,0.98,VWS V14.01,2013-04-09 22:35:00,
2013-04-09 17:40:00,20.3,1.4,27.46,North,353,8.7,10.5,43,0.00,,---,0.98,VWS V14.01,2013-04-09 22:40:00,
2013-04-09 17:45:00,20.3,1.4,27.46,North,353,12.3,12.3,43,0.00,,---,0.98,VWS V14.01,2013-04-09 22:45:00,
2013-04-09 17:50:00,20.1,1.2,27.46,North,353,8.3,13.2,43,0.00,,---,0.98,VWS V14.01,2013-04-09 22:50:00,
2013-04-09 17:55:00,20.5,1.5,27.46,North,353,8.7,8.7,43,0.00,,---,0.98,VWS V14.01,2013-04-09 22:55:00,
2013-04-09 18:00:00,20.5,1.5,27.49,North,353,7.6,8.7,43,0.00,,---,0.98,VWS V14.01,2013-04-09 23:00:00,
2013-04-09 18:05:00,20.1,1.2,27.49,North,353,11.0,11.0,43,0.00,,---,0.98,VWS V14.01,2013-04-09 23:05:00,
2013-04-09 18:10:00,20.3,1.4,27.49,North,353,8.1,11.0,43,0.00,,---,0.98,VWS V14.01,2013-04-09 23:10:00,
2013-04-09 18:15:00,20.3,1.4,27.49,North,353,8.3,11.0,43,0.00,,---,0.98,VWS V14.01,2013-04-09 23:15:00,
2013-04-09 18:20:00,20.1,1.2,27.49,North,353,10.5,10.5,43,0.00,,---,0.98,VWS V14.01,2013-04-09 23:20:00,
2013-04-09 18:25:00,19.8,0.9,27.49,NW,321,19.2,19.2,43,0.00,,---,0.98,VWS V14.01,2013-04-09 23:25:00,
2013-04-09 18:30:00,19.6,0.7,27.46,NNW,348,10.1,10.1,43,0.00,,---,0.98,VWS V14.01,2013-04-09 23:30:00,
2013-04-09 18:35:00,19.8,0.9,27.46,North,0,8.1,8.1,43,0.00,,---,0.98,VWS V14.01,2013-04-09 23:35:00,
2013-04-09 18:41:00,19.4,0.6,27.46,North,353,15.0,15.0,43,0.00,,---,0.98,VWS V14.01,2013-04-09 23:41:00,
2013-04-09 18:47:00,19.6,0.7,27.46,North,353,8.1,8.7,43,0.00,,---,0.98,VWS V14.01,2013-04-09 23:47:00,
2013-04-09 18:52:00,19.9,1.1,27.49,North,0,7.6,7.6,43,0.00,,---,0.98,VWS V14.01,2013-04-09 23:52:00,
2013-04-09 18:57:00,19.8,0.9,27.52,North,353,11.0,12.3,43,0.00,,---,0.98,VWS V14.01,2013-04-09 23:57:00,
2013-04-09 19:02:00,19.9,1.1,27.52,NNW,344,11.0,11.0,43,0.00,,---,0.98,VWS V14.01,2013-04-10 00:02:00,
2013-04-09 19:07:00,19.9,1.1,27.52,North,357,8.1,8.1,43,0.00,,---,0.98,VWS V14.01,2013-04-10 00:07:00,
2013-04-09 19:12:00,19.9,1.1,27.52,North,353,11.0,11.0,43,0.00,,---,0.98,VWS V14.01,2013-04-10 00:12:00,
2013-04-09 19:17:00,19.9,1.1,27.52,North,357,7.6,7.6,43,0.00,,---,0.98,VWS V14.01,2013-04-10 00:17:00,
2013-04-09 19:22:00,19.6,0.7,27.52,NNW,345,10.5,13.2,43,0.00,,---,0.98,VWS V14.01,2013-04-10 00:22:00,
2013-04-09 19:27:00,19.6,0.7,27.52,NW,309,8.3,8.3,43,0.00,,---,0.98,VWS V14.01,2013-04-10 00:27:00,
2013-04-09 19:32:00,19.6,0.7,27.52,North,353,8.7,8.7,43,0.00,,---,0.98,VWS V14.01,2013-04-10 00:32:00,
2013-04-09 19:37:00,19.4,0.6,27.52,North,357,8.3,8.3,43,0.00,,---,0.98,VWS V14.01,2013-04-10 00:37:00,
2013-04-09 19:42:00,19.4,0.6,27.52,NNW,344,8.1,8.1,43,0.00,,---,0.98,VWS V14.01,2013-04-10 00:42:00,
2013-04-09 19:47:00,19.6,0.7,27.52,NNW,342,11.0,11.0,43,0.00,,---,0.98,VWS V14.01,2013-04-10 00:47:00,
2013-04-09 19:52:00,19.2,0.4,27.52,North,0,11.9,11.9,43,0.00,,---,0.98,VWS V14.01,2013-04-10 00:52:00,
2013-04-09 19:57:00,19.2,0.4,27.52,NNW,346,10.5,10.5,43,0.00,,---,0.98,VWS V14.01,2013-04-10 00:57:00,
2013-04-09 20:02:00,19.2,0.4,27.52,NNW,334,8.3,8.3,43,0.00,,---,0.98,VWS V14.01,2013-04-10 01:02:00,
2013-04-09 20:07:00,18.9,0.1,27.52,NNW,343,8.3,9.6,43,0.00,,---,0.98,VWS V14.01,2013-04-10 01:07:00,
2013-04-09 20:12:00,18.9,0.1,27.52,North,350,12.3,12.3,43,0.00,,---,0.98,VWS V14.01,2013-04-10 01:12:00,
2013-04-09 20:17:00,18.7,-0.1,27.55,North,0,8.1,11.0,43,0.00,,---,0.98,VWS V14.01,2013-04-10 01:17:00,
2013-04-09 20:22:00,18.9,0.1,27.55,North,0,10.1,10.1,43,0.00,,---,0.98,VWS V14.01,2013-04-10 01:22:00,
2013-04-09 20:27:00,18.7,-0.1,27.49,NNW,342,10.5,10.5,43,0.00,,---,0.98,VWS V14.01,2013-04-10 01:27:00,
2013-04-09 20:32:00,18.7,-0.1,27.49,North,349,8.3,8.3,43,0.00,,---,0.98,VWS V14.01,2013-04-10 01:32:00,
2013-04-09 20:37:00,18.9,0.1,27.49,North,353,10.5,10.5,43,0.00,,---,0.98,VWS V14.01,2013-04-10 01:37:00,
2013-04-09 20:42:00,18.7,-0.1,27.49,North,353,8.3,10.5,43,0.00,,---,0.98,VWS V14.01,2013-04-10 01:42:00,
2013-04-09 20:47:00,18.7,-0.1,27.49,North,0,10.5,10.5,43,0.00,,---,0.98,VWS V14.01,2013-04-10 01:47:00,
2013-04-09 20:52:00,18.7,-0.1,27.49,North,353,10.5,13.2,43,0.00,,---,0.98,VWS V14.01,2013-04-10 01:52:00,
2013-04-09 20:57:00,18.9,0.1,27.49,NNW,348,11.0,11.0,43,0.00,,---,0.98,VWS V14.01,2013-04-10 01:57:00,
2013-04-09 21:02:00,18.9,0.1,27.49,North,350,10.1,10.1,43,0.00,,---,0.98,VWS V14.01,2013-04-10 02:02:00,
2013-04-09 21:07:00,19.0,0.2,27.49,North,353,8.3,9.2,43,0.00,,---,0.98,VWS V14.01,2013-04-10 02:07:00,
2013-04-09 21:12:00,18.9,0.1,27.49,NNW,345,10.5,10.5,43,0.00,,---,0.98,VWS V14.01,2013-04-10 02:12:00,
2013-04-09 21:17:00,19.0,0.2,27.49,NNW,346,8.7,8.7,43,0.00,,---,0.98,VWS V14.01,2013-04-10 02:17:00,
2013-04-09 21:22:00,19.0,0.2,27.49,North,0,10.1,11.0,43,0.00,,---,0.98,VWS V14.01,2013-04-10 02:22:00,
2013-04-09 21:27:00,19.0,0.2,27.49,NNW,346,12.3,12.3,43,0.00,,---,0.98,VWS V14.01,2013-04-10 02:27:00,
2013-04-09 21:32:00,19.0,0.2,27.52,North,0,8.7,8.7,43,0.00,,---,0.98,VWS V14.01,2013-04-10 02:32:00,
2013-04-09 21:37:00,19.2,0.4,27.52,North,353,10.1,10.1,43,0.00,,---,0.98,VWS V14.01,2013-04-10 02:37:00,
2013-04-09 21:42:00,19.2,0.4,27.55,North,353,8.3,8.3,43,0.00,,---,0.98,VWS V14.01,2013-04-10 02:42:00,
2013-04-09 21:47:00,19.4,0.6,27.55,North,353,12.3,12.3,43,0.00,,---,0.98,VWS V14.01,2013-04-10 02:47:00,
2013-04-09 21:52:00,19.4,0.6,27.55,North,353,8.1,8.1,43,0.00,,---,0.98,VWS V14.01,2013-04-10 02:52:00,
2013-04-09 21:57:00,19.4,0.6,27.55,NNW,348,8.7,10.5,43,0.00,,---,0.98,VWS V14.01,2013-04-10 02:57:00,
2013-04-09 22:02:00,19.4,0.6,27.55,North,350,7.6,8.3,43,0.00,,---,0.98,VWS V14.01,2013-04-10 03:02:00,
2013-04-09 22:08:00,19.6,0.7,27.55,NNW,346,8.3,8.3,43,0.00,,---,0.98,VWS V14.01,2013-04-10 03:08:00,
2013-04-09 22:12:00,19.6,0.7,27.55,North,357,8.7,8.7,43,0.00,,---,0.98,VWS V14.01,2013-04-10 03:12:00,
2013-04-09 22:17:00,19.6,0.7,27.55,North,0,7.6,9.2,43,0.00,,---,0.98,VWS V14.01,2013-04-10 03:17:00,
2013-04-09 22:22:00,19.6,0.7,27.55,North,0,7.6,7.6,43,0.00,,---,0.98,VWS V14.01,2013-04-10 03:22:00,
2013-04-09 22:27:00,19.6,0.7,27.55,North,2,7.6,8.3,43,0.00,,---,0.98,VWS V14.01,2013-04-10 03:27:00,
2013-04-09 22:32:00,19.6,0.7,27.55,North,2,8.1,8.1,43,0.00,,---,0.98,VWS V14.01,2013-04-10 03:32:00,
2013-04-09 22:37:00,19.6,0.7,27.55,North,2,7.6,7.6,43,0.00,,---,0.98,VWS V14.01,2013-04-10 03:37:00,
2013-04-09 22:43:00,19.6,0.7,27.55,North,2,8.1,8.1,43,0.00,,---,0.98,VWS V14.01,2013-04-10 03:43:00,
2013-04-09 22:48:00,19.6,0.7,27.55,North,0,8.3,8.3,43,0.00,,---,0.98,VWS V14.01,2013-04-10 03:48:00,
2013-04-09 22:52:00,19.8,0.9,27.55,North,357,8.3,8.3,43,0.00,,---,0.98,VWS V14.01,2013-04-10 03:52:00,
2013-04-09 22:58:00,19.9,1.1,27.55,North,357,5.8,10.1,43,0.00,,---,0.98,VWS V14.01,2013-04-10 03:58:00,
2013-04-09 23:00:00,19.9,1.1,27.55,North,357,7.2,8.3,43,0.00,,---,0.98,VWS V14.01,2013-04-10 04:00:00,
2013-04-09 23:05:00,19.9,1.1,27.55,North,357,7.6,8.3,43,0.00,,---,0.98,VWS V14.01,2013-04-10 04:05:00,
2013-04-09 23:10:00,19.9,1.1,27.55,North,357,8.7,10.1,43,0.00,,---,0.98,VWS V14.01,2013-04-10 04:10:00,
2013-04-09 23:15:00,20.1,1.2,27.52,North,357,13.2,13.2,43,0.00,,---,0.98,VWS V14.01,2013-04-10 04:15:00,
2013-04-09 23:20:00,20.1,1.2,27.52,North,357,6.3,8.1,43,0.00,,---,0.98,VWS V14.01,2013-04-10 04:20:00,
2013-04-09 23:25:00,20.3,1.4,27.52,North,350,7.2,11.0,43,0.00,,---,0.98,VWS V14.01,2013-04-10 04:25:00,
2013-04-09 23:30:00,20.3,1.4,27.55,North,353,11.0,11.0,43,0.00,,---,0.98,VWS V14.01,2013-04-10 04:30:00,
2013-04-09 23:35:00,20.3,1.4,27.55,NW,319,8.3,9.2,43,0.00,,---,0.98,VWS V14.01,2013-04-10 04:35:00,
2013-04-09 23:40:00,20.3,1.4,27.55,NW,325,8.7,13.6,43,0.00,,---,0.98,VWS V14.01,2013-04-10 04:40:00,
2013-04-09 23:45:00,20.3,1.4,27.52,North,353,11.0,11.0,43,0.00,,---,0.98,VWS V14.01,2013-04-10 04:45:00,
2013-04-09 23:50:00,20.3,1.4,27.52,NNW,336,8.7,8.7,43,0.00,,---,0.98,VWS V14.01,2013-04-10 04:50:00,
2013-04-09 23:55:00,20.3,1.4,27.52,North,350,8.3,10.1,43,0.00,,---,0.98,VWS V14.01,2013-04-10 04:55:00,